Current Weather

Newport Muni

Newport, Oregon (KONP)

Report from: Wednesday, September 28, 2022 1:55 AM PDT
Current time: Wednesday, September 28, 2022 2:13 AM PDT

Nearby weather
Weather history
Weather forecast

Temperature12.0°C (53.6°F)
Dew point11.0°C (51.8°F)
Winds Calm
Visibility10 mi. (16.1 km)
Clouds Sky clear
Altimeter29.99 in.Hg (1016 mB)
Relative humidity94 %
Density altitude-251 ft. (-77 m)
Remarks Fully automated report
Automated weather observing station with precipitation discriminator
Flight conditions Visual Meteorological Conditions
Raw dataKONP 280855Z AUTO 00000KT 10SM CLR 12/11 A2999 RMK AO2
An error has occurred. This application may no longer respond until reloaded. Reload 🗙